Gibraltar, Michigan
Current Conditions -  °F | °C
As of 7:35 AM on Tuesday 27 Jan 2015 (Local Time) from KONZ Reporting Station
Clear Clear  
Wind Chill:   Ceiling: Unl
Heat Index: 10°   Visibility: 10mi
Dew Point:   Wind: 5mph
Humidity: 85%   Direction: 350°N
Pressure: 30.05"   Gusts: NA
Location:  42.0725°N, 83.2169°W
Report Text: KONZ 271235Z AUTO 35004KT 10SM CLR M12/M14 A3005 RMK AO2
Loading
Personal Weather Stations






























Interactive Weather Map New forecast layout! Learn more

10-Day Weather Forecast

Advertisements
Track Severe Weather on mobile